Weather reports worldwide

Advertisment
Firenze, Italy (16171): temperature & dewpoint: 03.07.2020 04:00:00 - 09.07.2020 04:00:00 (CEST)Firenze, Italy (16171): reduced air pressure: 03.07.2020 04:00:00 - 09.07.2020 04:00:00 (CEST)Firenze, Italy (16171): precipitation: 03.07.2020 04:00:00 - 09.07.2020 04:00:00 (CEST)
Date & Time tt [°C] td [°C] ppp [hPa] rr [mm]
09.07.2020 04:00:00 - - - -
09.07.2020 03:00:00 19,6 15,6 1016,9 -
09.07.2020 02:00:00 20,5 15,6 1016,9 0,0
09.07.2020 01:00:00 21,6 16,0 1016,6 -
09.07.2020 00:00:00 22,8 16,3 1016,3 -
08.07.2020 23:00:00 24,8 17,2 1016,1 -
08.07.2020 22:00:00 26,3 18,1 1015,3 -
08.07.2020 21:00:00 28,2 17,4 1014,6 -
08.07.2020 20:00:00 29,9 17,7 1013,9 0,0
08.07.2020 19:00:00 31,0 16,6 1014,0 -
08.07.2020 18:00:00 31,6 16,7 1014,3 -
08.07.2020 17:00:00 31,8 16,5 1014,7 -
08.07.2020 16:00:00 32,9 17,9 1015,2 -
08.07.2020 15:00:00 32,4 17,8 1015,5 -
08.07.2020 14:00:00 31,3 17,2 1015,8 0,0
08.07.2020 13:00:00 30,3 19,3 1016,3 -
08.07.2020 12:00:00 27,9 17,4 1016,5 -
08.07.2020 11:00:00 27,6 17,4 1016,6 -
08.07.2020 10:00:00 25,0 16,6 1016,9 -
08.07.2020 09:00:00 21,6 14,4 1016,9 -
08.07.2020 08:00:00 21,3 14,6 1016,5 0,0
08.07.2020 07:00:00 17,3 11,9 1016,2 -
08.07.2020 06:00:00 17,7 11,2 1016,1 -
08.07.2020 05:00:00 19,3 11,5 1016,0 -
08.07.2020 04:00:00 20,6 11,2 1016,1 -
08.07.2020 03:00:00 21,2 10,9 1016,2 -
08.07.2020 02:00:00 20,1 11,0 1016,1 0,0
08.07.2020 01:00:00 22,1 11,4 1015,7 -
08.07.2020 00:00:00 22,7 12,8 1015,6 -
07.07.2020 23:00:00 23,3 13,9 1015,2 -
07.07.2020 22:00:00 23,6 14,2 1014,7 -
07.07.2020 21:00:00 24,6 15,7 1014,1 -
07.07.2020 20:00:00 25,5 17,1 1014,1 0,0
07.07.2020 19:00:00 26,2 18,3 1013,8 -
07.07.2020 18:00:00 26,4 19,5 1013,7 -
07.07.2020 17:00:00 26,4 19,7 1013,9 -
07.07.2020 16:00:00 26,6 19,9 1013,9 -
07.07.2020 15:00:00 26,3 18,9 1014,2 -
07.07.2020 14:00:00 25,9 18,8 1014,3 0,0
07.07.2020 13:00:00 24,6 18,2 1014,2 -
07.07.2020 12:00:00 23,8 18,2 1013,9 -
07.07.2020 11:00:00 23,7 17,8 1013,2 -
07.07.2020 10:00:00 23,8 18,2 1012,4 -
07.07.2020 09:00:00 23,7 18,5 1011,5 -
07.07.2020 08:00:00 24,8 20,4 1010,3 0,0
07.07.2020 07:00:00 24,5 22,7 1009,3 -
07.07.2020 06:00:00 21,1 20,2 1008,7 -
07.07.2020 05:00:00 20,7 19,8 1008,4 -
07.07.2020 04:00:00 21,1 20,0 1007,7 -
07.07.2020 03:00:00 21,9 20,7 1007,6 -
07.07.2020 02:00:00 22,7 21,1 1007,6 0,0
07.07.2020 01:00:00 23,2 20,1 1007,6 -
07.07.2020 00:00:00 24,4 20,3 1007,5 -
06.07.2020 23:00:00 26,1 20,8 1007,2 -
06.07.2020 22:00:00 27,7 21,9 1006,9 -
06.07.2020 21:00:00 29,2 22,9 1006,6 -
06.07.2020 20:00:00 30,5 22,9 1006,4 0,0
06.07.2020 19:00:00 32,1 23,9 1006,1 -
06.07.2020 18:00:00 33,7 25,7 1006,1 -
06.07.2020 17:00:00 34,7 24,0 1006,6 -
06.07.2020 16:00:00 35,1 23,8 1006,8 -
06.07.2020 15:00:00 35,3 23,6 1007,5 -
06.07.2020 14:00:00 34,8 24,4 1008,3 0,0
06.07.2020 13:00:00 33,8 24,7 1009,0 -
06.07.2020 12:00:00 30,8 22,6 1009,6 -
06.07.2020 11:00:00 29,5 23,2 1010,4 -
06.07.2020 10:00:00 26,7 23,3 1011,0 -
06.07.2020 09:00:00 23,9 21,9 1011,8 -
06.07.2020 08:00:00 23,2 21,8 1011,9 0,0
06.07.2020 07:00:00 19,5 18,3 1012,2 -
06.07.2020 06:00:00 18,6 17,0 1012,5 -
06.07.2020 05:00:00 20,0 18,2 1012,8 -
06.07.2020 04:00:00 20,0 18,1 1013,1 -
06.07.2020 03:00:00 20,6 18,1 1013,4 -
06.07.2020 02:00:00 21,9 18,6 1013,8 0,0
06.07.2020 01:00:00 23,1 18,8 1013,9 -
06.07.2020 00:00:00 23,9 18,3 1014,0 -
05.07.2020 23:00:00 26,5 19,3 1013,6 -
05.07.2020 22:00:00 27,3 19,6 1013,1 -
05.07.2020 21:00:00 29,3 20,4 1012,8 -
05.07.2020 20:00:00 30,3 21,4 1013,0 0,0
05.07.2020 19:00:00 30,9 21,6 1012,9 -
05.07.2020 18:00:00 31,2 21,9 1013,6 -
05.07.2020 17:00:00 31,2 21,9 1014,2 -
05.07.2020 16:00:00 31,7 22,1 1014,8 -
05.07.2020 15:00:00 31,6 21,7 1015,3 -
05.07.2020 14:00:00 31,3 21,7 1015,7 0,0
05.07.2020 13:00:00 30,6 21,4 1016,2 -
05.07.2020 12:00:00 29,5 21,1 1016,4 -
05.07.2020 11:00:00 28,8 20,2 1016,5 -
05.07.2020 10:00:00 26,9 22,7 1016,8 -
05.07.2020 09:00:00 23,4 20,1 1017,0 -
05.07.2020 08:00:00 23,1 21,3 1017,2 0,0
05.07.2020 07:00:00 19,5 18,8 1017,4 -
05.07.2020 06:00:00 18,8 17,8 1017,3 -
05.07.2020 05:00:00 19,5 18,3 1017,2 -
05.07.2020 04:00:00 20,3 18,9 1016,7 -
05.07.2020 03:00:00 21,3 19,5 1016,8 -
05.07.2020 02:00:00 22,1 20,0 1016,9 0,0
05.07.2020 01:00:00 22,8 19,9 1016,8 -
05.07.2020 00:00:00 24,1 20,0 1016,4 -
04.07.2020 23:00:00 25,4 20,1 1016,1 -
04.07.2020 22:00:00 26,6 20,4 1015,7 -
04.07.2020 21:00:00 27,7 20,7 1015,3 -
04.07.2020 20:00:00 28,7 21,4 1014,9 0,0
04.07.2020 19:00:00 29,1 20,8 1014,7 -
04.07.2020 18:00:00 29,7 21,3 1014,8 -
04.07.2020 17:00:00 29,7 21,1 1014,8 -
04.07.2020 16:00:00 30,1 20,9 1014,8 -
04.07.2020 15:00:00 29,8 20,9 1015,1 -
04.07.2020 14:00:00 29,4 21,0 1015,4 0,0
04.07.2020 13:00:00 28,6 20,8 1015,7 -
04.07.2020 12:00:00 28,2 21,2 1015,7 -
04.07.2020 11:00:00 26,9 20,9 1015,7 -
04.07.2020 10:00:00 26,6 20,8 1015,7 -
04.07.2020 09:00:00 24,9 20,3 1015,5 -
04.07.2020 08:00:00 25,3 21,3 1015,1 -
04.07.2020 07:00:00 23,1 20,6 1015,2 -
04.07.2020 06:00:00 22,6 20,8 1014,5 -
04.07.2020 05:00:00 20,6 20,2 1014,4 -
04.07.2020 04:00:00 20,6 20,1 1014,0 -
04.07.2020 03:00:00 21,5 21,1 1014,0 -
04.07.2020 02:00:00 22,1 21,9 1013,1 -
04.07.2020 01:00:00 22,3 20,7 1015,5 -
04.07.2020 00:00:00 24,1 23,0 1014,7 -
03.07.2020 23:00:00 26,4 24,0 1013,9 -
03.07.2020 22:00:00 26,6 23,2 1012,9 -
03.07.2020 21:00:00 27,2 22,3 1012,0 -
03.07.2020 20:00:00 28,6 21,8 1011,3 0,0
03.07.2020 19:00:00 29,5 21,9 1011,0 -
03.07.2020 18:00:00 28,7 21,7 1011,1 -
03.07.2020 17:00:00 30,8 21,3 1011,1 -
03.07.2020 16:00:00 32,1 24,4 1010,8 -
03.07.2020 15:00:00 31,8 24,4 1010,5 -
03.07.2020 14:00:00 31,3 24,1 1011,3 0,0
03.07.2020 13:00:00 30,7 24,6 1011,7 -
03.07.2020 12:00:00 29,1 23,3 1011,8 -
03.07.2020 11:00:00 29,1 25,9 1011,6 -
03.07.2020 10:00:00 27,4 26,2 1011,6 -
03.07.2020 09:00:00 24,7 24,3 1011,7 -
03.07.2020 08:00:00 23,0 22,8 1011,7 0,0
03.07.2020 07:00:00 22,7 22,5 1011,5 -
03.07.2020 06:00:00 22,4 21,8 1011,0 -
03.07.2020 05:00:00 23,3 22,9 1011,3 -
03.07.2020 04:00:00 23,1 22,7 1011,2 -

tt = temperature
td = dewpoint
ppp = reduced air pressure
rr = precipitation

Next stations